Little River, Kansas
Current Conditions -  °F | °C
As of 7:04 AM on Saturday 25 Oct 2014 (Local Time) from KHUT Reporting Station
Moderate Fog Moderate Fog  
Wind Chill: 52°   Ceiling: 100
Heat Index: 52°   Visibility: 0.25mi
Dew Point: 50°   Wind: 0mph
Humidity: 93%   Direction: NA
Pressure: 30.05"   Gusts: NA
Location:  38.4°N, 98.01°W
Report Text: KHUT 251204Z 00000KT 1/4SM R13/1400V6000FT FG VV001 11/10 A3005 RMK AO2 T01110100
Loading
Personal Weather Stations






























Interactive Weather Map
Tropical Storm Tracking
New forecast layout! Learn more

10-Day Weather Forecast

Advertisements
Track Severe Weather on mobile